createdAt,value
2022-08-02T00:00:09.588Z,99.90
2022-08-02T00:02:36.739Z,99.90
2022-08-02T00:05:06.542Z,99.90
2022-08-02T00:07:40.695Z,99.90
2022-08-02T00:10:09.905Z,99.90
2022-08-02T00:12:39.342Z,99.90
2022-08-02T00:15:07.860Z,99.90
2022-08-02T00:17:34.728Z,99.90
2022-08-02T00:20:04.358Z,99.90
2022-08-02T00:22:34.407Z,99.90
2022-08-02T00:25:01.188Z,99.90
2022-08-02T00:27:30.798Z,99.90
2022-08-02T00:29:57.515Z,99.90
2022-08-02T00:32:29.047Z,99.90
2022-08-02T00:34:55.782Z,99.90
2022-08-02T00:37:22.509Z,99.90
2022-08-02T00:39:49.233Z,99.90
2022-08-02T00:42:18.356Z,99.90
2022-08-02T00:44:45.153Z,99.90
2022-08-02T00:47:19.324Z,99.90
2022-08-02T00:49:47.127Z,99.90
2022-08-02T00:52:14.216Z,99.90
2022-08-02T00:54:43.670Z,99.90
2022-08-02T00:57:10.435Z,99.90
2022-08-02T00:59:39.760Z,99.90
2022-08-02T01:02:12.193Z,99.90
2022-08-02T01:04:39.205Z,99.90
2022-08-02T01:07:12.521Z,99.90
2022-08-02T01:09:46.701Z,99.90
2022-08-02T01:12:14.312Z,99.90
2022-08-02T01:14:44.454Z,99.90
2022-08-02T01:17:34.315Z,99.90
2022-08-02T01:20:25.294Z,99.90
2022-08-02T01:23:29.503Z,99.90
2022-08-02T01:26:10.623Z,99.90
2022-08-02T01:28:52.029Z,99.90
2022-08-02T01:31:21.898Z,99.90
2022-08-02T01:34:06.098Z,99.90
2022-08-02T01:36:41.499Z,99.90
2022-08-02T01:39:12.219Z,99.90
2022-08-02T01:42:07.882Z,99.90
2022-08-02T01:44:38.115Z,99.90
2022-08-02T01:47:19.342Z,99.90
2022-08-02T01:49:50.697Z,99.90
2022-08-02T01:52:22.557Z,99.90
2022-08-02T01:54:58.182Z,99.90
2022-08-02T01:57:27.463Z,99.90
2022-08-02T01:59:57.906Z,99.90
2022-08-02T02:02:28.875Z,99.90
2022-08-02T02:04:59.712Z,99.90
2022-08-02T02:07:29.661Z,99.90
2022-08-02T02:09:58.385Z,99.90
2022-08-02T02:12:25.741Z,99.90
2022-08-02T02:14:54.488Z,99.90
2022-08-02T02:18:11.267Z,99.90
2022-08-02T02:20:21.716Z,99.90
2022-08-02T02:22:49.867Z,99.90
2022-08-02T02:25:19.724Z,99.90
2022-08-02T02:28:01.062Z,99.90
2022-08-02T02:30:29.915Z,99.90
2022-08-02T02:33:04.982Z,99.90
2022-08-02T02:35:36.978Z,99.90
2022-08-02T02:38:08.016Z,99.90
2022-08-02T02:40:36.630Z,99.90
2022-08-02T02:43:04.961Z,99.90
2022-08-02T02:45:36.695Z,99.90
2022-08-02T02:48:07.348Z,99.90
2022-08-02T02:50:36.122Z,99.90
2022-08-02T02:53:06.914Z,99.90
2022-08-02T02:55:38.611Z,99.90
2022-08-02T02:58:06.476Z,99.90
2022-08-02T03:00:51.655Z,99.90
2022-08-02T03:03:23.863Z,99.90
2022-08-02T03:05:51.487Z,99.90
2022-08-02T03:08:20.553Z,99.90
2022-08-02T03:10:48.259Z,99.90
2022-08-02T03:13:16.048Z,99.90
2022-08-02T03:15:43.342Z,99.90
2022-08-02T03:18:10.060Z,99.90
2022-08-02T03:20:36.906Z,99.90
2022-08-02T03:23:04.735Z,99.90
2022-08-02T03:25:31.590Z,99.90
2022-08-02T03:28:01.705Z,99.90
2022-08-02T03:30:30.626Z,99.90
2022-08-02T03:32:57.709Z,99.90
2022-08-02T03:35:26.544Z,99.90
2022-08-02T03:37:59.974Z,99.90
2022-08-02T03:40:27.924Z,99.90
2022-08-02T03:42:55.494Z,99.90
2022-08-02T03:45:23.163Z,99.90
2022-08-02T03:47:52.523Z,99.90
2022-08-02T03:50:22.822Z,99.90
2022-08-02T03:52:50.166Z,99.90
2022-08-02T03:55:16.928Z,99.90
2022-08-02T03:57:44.222Z,99.90
2022-08-02T04:00:19.165Z,99.90
2022-08-02T04:02:45.968Z,99.90
2022-08-02T04:05:13.074Z,99.90
2022-08-02T04:08:34.046Z,99.90
2022-08-02T04:10:26.910Z,99.90
2022-08-02T04:12:56.838Z,99.90
2022-08-02T04:15:26.194Z,99.90
2022-08-02T04:17:59.843Z,99.90
2022-08-02T04:20:33.959Z,99.90
2022-08-02T04:23:07.076Z,99.90
2022-08-02T04:25:40.301Z,99.90
2022-08-02T04:28:17.454Z,99.90
2022-08-02T04:30:49.851Z,99.90
2022-08-02T04:33:19.367Z,99.90
2022-08-02T04:35:46.424Z,99.90
2022-08-02T04:38:16.966Z,99.90
2022-08-02T04:40:55.574Z,99.90
2022-08-02T04:43:23.283Z,99.90
2022-08-02T04:45:55.029Z,99.90
2022-08-02T04:48:22.533Z,99.90
2022-08-02T04:50:52.187Z,99.90
2022-08-02T04:53:19.157Z,99.90
2022-08-02T04:55:48.595Z,99.90
2022-08-02T04:58:38.715Z,99.90
2022-08-02T05:01:02.150Z,99.90
2022-08-02T05:03:31.072Z,99.90
2022-08-02T05:05:58.388Z,99.90
2022-08-02T05:08:25.091Z,99.90
2022-08-02T05:10:54.264Z,99.90
2022-08-02T05:13:21.146Z,99.90
2022-08-02T05:15:50.808Z,99.90
2022-08-02T05:18:17.795Z,99.90
2022-08-02T05:20:44.531Z,99.90
2022-08-02T05:23:11.351Z,99.90
2022-08-02T05:25:38.150Z,99.90
2022-08-02T05:28:08.322Z,99.90
2022-08-02T05:30:38.132Z,99.90
2022-08-02T05:33:05.482Z,99.90
2022-08-02T05:35:35.104Z,99.90
2022-08-02T05:38:01.914Z,99.90
2022-08-02T05:40:28.791Z,99.90
2022-08-02T05:42:55.942Z,99.90
2022-08-02T05:45:23.854Z,99.90
2022-08-02T05:47:53.186Z,99.90
2022-08-02T05:50:24.359Z,99.90
2022-08-02T05:52:59.244Z,99.90
2022-08-02T05:55:40.317Z,99.90
2022-08-02T05:58:46.369Z,99.90
2022-08-02T06:01:17.690Z,99.90
2022-08-02T06:03:52.300Z,99.90
2022-08-02T06:06:25.495Z,99.90
2022-08-02T06:08:58.917Z,99.90
2022-08-02T06:11:42.993Z,99.90
2022-08-02T06:16:59.253Z,99.90
2022-08-02T06:19:26.899Z,99.90
2022-08-02T06:22:34.653Z,99.90
2022-08-02T06:24:51.357Z,99.90
2022-08-02T06:27:19.003Z,99.90
2022-08-02T06:29:51.414Z,99.90
2022-08-02T06:32:19.411Z,99.90
2022-08-02T06:34:46.752Z,99.90
2022-08-02T06:37:41.141Z,99.90
2022-08-02T06:40:16.835Z,99.90
2022-08-02T06:42:46.382Z,99.90
2022-08-02T06:45:13.097Z,99.90
2022-08-02T06:47:42.432Z,99.90
2022-08-02T06:50:10.648Z,99.90
2022-08-02T06:52:37.551Z,99.90
2022-08-02T06:55:10.239Z,99.90
2022-08-02T06:57:37.139Z,99.90
2022-08-02T07:00:09.029Z,99.90
2022-08-02T07:02:39.815Z,99.90
2022-08-02T07:05:07.796Z,99.90
2022-08-02T07:07:37.231Z,99.90
2022-08-02T07:10:06.602Z,99.90
2022-08-02T07:12:34.645Z,99.90
2022-08-02T07:15:05.331Z,99.90
2022-08-02T07:17:32.644Z,99.90
2022-08-02T07:20:02.497Z,99.90
2022-08-02T07:22:31.505Z,99.90
2022-08-02T07:24:59.906Z,99.90
2022-08-02T07:27:29.426Z,99.90
2022-08-02T07:29:56.317Z,99.90
2022-08-02T07:32:28.178Z,99.90
2022-08-02T07:34:55.975Z,99.90
2022-08-02T07:37:53.630Z,99.90
2022-08-02T07:40:20.230Z,99.90
2022-08-02T07:42:49.870Z,99.90
2022-08-02T07:45:21.692Z,99.90
2022-08-02T07:47:51.539Z,99.90
2022-08-02T07:50:20.234Z,99.90
2022-08-02T07:52:47.873Z,99.90
2022-08-02T07:55:18.208Z,99.90
2022-08-02T07:57:48.629Z,99.90
2022-08-02T08:00:17.419Z,99.90
2022-08-02T08:02:44.908Z,99.90
2022-08-02T08:05:12.045Z,99.90
2022-08-02T08:07:41.439Z,99.90
2022-08-02T08:10:08.947Z,99.90
2022-08-02T08:12:37.882Z,99.90
2022-08-02T08:15:05.263Z,99.90
2022-08-02T08:17:32.054Z,99.90
2022-08-02T08:19:58.777Z,99.90
2022-08-02T08:22:25.569Z,99.90
2022-08-02T08:24:52.339Z,99.90
2022-08-02T08:27:22.425Z,99.90
2022-08-02T08:29:51.476Z,99.90
2022-08-02T08:32:19.526Z,99.90
2022-08-02T08:34:48.027Z,99.90
2022-08-02T08:37:17.650Z,99.90
2022-08-02T08:39:58.073Z,99.90
2022-08-02T08:42:30.464Z,99.90
2022-08-02T08:44:58.864Z,99.90
2022-08-02T08:47:45.642Z,99.90
2022-08-02T08:50:24.858Z,99.90
2022-08-02T08:53:03.774Z,99.90
2022-08-02T08:55:31.624Z,99.50
2022-08-02T08:57:59.813Z,99.30
2022-08-02T09:00:29.482Z,99.20
2022-08-02T09:02:56.832Z,98.70
2022-08-02T09:05:28.244Z,98.60
2022-08-02T09:07:57.432Z,98.90
2022-08-02T09:10:42.540Z,99.00
2022-08-02T09:13:43.544Z,98.20
2022-08-02T09:18:47.797Z,97.90
2022-08-02T09:21:16.848Z,98.30
2022-08-02T09:23:46.492Z,97.10
2022-08-02T09:26:23.699Z,97.70
2022-08-02T09:28:52.820Z,96.20
2022-08-02T09:31:24.546Z,96.10
2022-08-02T09:33:58.177Z,97.00
2022-08-02T09:36:26.612Z,96.00
2022-08-02T09:39:01.453Z,95.00
2022-08-02T09:41:30.081Z,95.90
2022-08-02T09:44:04.456Z,95.70
2022-08-02T09:46:43.810Z,95.90
2022-08-02T09:49:16.745Z,95.20
2022-08-02T09:51:47.078Z,95.10
2022-08-02T09:54:33.008Z,94.60
2022-08-02T09:57:02.069Z,94.30
2022-08-02T09:59:30.068Z,94.30
2022-08-02T10:02:04.316Z,95.00
2022-08-02T10:04:52.676Z,93.60
2022-08-02T10:07:21.572Z,94.20
2022-08-02T10:09:49.388Z,94.20
2022-08-02T10:12:16.906Z,94.30
2022-08-02T10:14:44.922Z,93.60
2022-08-02T10:17:12.032Z,93.70
2022-08-02T10:20:01.921Z,92.70
2022-08-02T10:22:30.961Z,92.60
2022-08-02T10:25:00.910Z,92.60
2022-08-02T10:30:23.039Z,99.90
2022-08-02T10:32:53.932Z,99.90
2022-08-02T10:35:25.573Z,99.90
2022-08-02T11:09:33.509Z,85.90
2022-08-02T11:12:08.767Z,85.70
2022-08-02T11:14:37.913Z,86.30
2022-08-02T11:17:05.823Z,86.40
2022-08-02T11:19:34.795Z,85.70
2022-08-02T11:22:05.681Z,87.10
2022-08-02T11:24:40.675Z,87.90
2022-08-02T11:27:17.637Z,86.30
2022-08-02T11:29:46.529Z,88.60
2022-08-02T11:32:30.613Z,89.70
2022-08-02T11:35:01.032Z,86.60
2022-08-02T11:37:44.691Z,87.10
2022-08-02T11:40:18.933Z,86.50
2022-08-02T11:42:53.842Z,87.20
2022-08-02T11:45:29.391Z,87.80
2022-08-02T11:47:57.219Z,88.60
2022-08-02T11:50:29.729Z,84.30
2022-08-02T11:52:57.789Z,85.20
2022-08-02T11:55:34.536Z,82.90
2022-08-02T11:58:06.402Z,83.40
2022-08-02T12:00:33.450Z,85.30
2022-08-02T12:03:00.360Z,82.50
2022-08-02T12:08:14.178Z,83.80
2022-08-02T12:10:49.873Z,84.40
2022-08-02T12:13:16.951Z,84.70
2022-08-02T12:15:46.122Z,83.00
2022-08-02T12:18:33.947Z,81.00
2022-08-02T12:21:04.423Z,81.30
2022-08-02T12:23:31.373Z,82.80
2022-08-02T12:26:15.784Z,83.20
2022-08-02T12:28:43.385Z,82.40
2022-08-02T12:31:14.041Z,82.50
2022-08-02T12:33:57.199Z,80.40
2022-08-02T12:36:28.363Z,80.10
2022-08-02T12:38:57.105Z,81.60
2022-08-02T12:41:31.691Z,81.50
2022-08-02T12:43:59.871Z,80.90
2022-08-02T12:46:27.221Z,80.30
2022-08-02T12:49:16.865Z,80.10
2022-08-02T12:51:56.486Z,80.80
2022-08-02T12:54:30.846Z,80.50
2022-08-02T12:57:11.082Z,80.40
2022-08-02T12:59:39.984Z,81.00
2022-08-02T13:02:11.421Z,81.80
2022-08-02T13:04:39.046Z,81.90
2022-08-02T13:07:08.669Z,80.10
2022-08-02T13:09:37.250Z,79.40
2022-08-02T13:12:05.725Z,81.00
2022-08-02T13:14:38.182Z,81.80
2022-08-02T13:17:08.815Z,79.70
2022-08-02T13:19:36.951Z,80.00
2022-08-02T13:22:04.395Z,79.80
2022-08-02T13:24:39.834Z,79.70
2022-08-02T13:27:09.330Z,80.30
2022-08-02T13:29:43.945Z,79.90
2022-08-02T13:32:15.653Z,79.20
2022-08-02T13:34:42.926Z,78.40
2022-08-02T13:37:12.266Z,80.40
2022-08-02T13:39:39.223Z,80.00
2022-08-02T13:42:08.506Z,79.50
2022-08-02T13:44:45.938Z,78.10
2022-08-02T13:47:15.858Z,78.60
2022-08-02T13:50:03.053Z,78.50
2022-08-02T14:02:28.162Z,95.40
2022-08-02T14:04:55.359Z,95.50
2022-08-02T14:07:24.727Z,94.70
2022-08-02T14:09:51.502Z,95.70
2022-08-02T14:12:21.593Z,95.50
2022-08-02T14:14:48.299Z,95.50
2022-08-02T14:17:15.731Z,94.70
2022-08-02T14:19:47.116Z,95.20
2022-08-02T14:22:13.942Z,95.50
2022-08-02T14:24:41.599Z,96.20
2022-08-02T14:29:35.728Z,76.60
2022-08-02T14:32:02.567Z,75.10
2022-08-02T14:34:29.652Z,74.70
2022-08-02T14:36:56.963Z,77.10
2022-08-02T14:39:23.952Z,75.80
2022-08-02T14:42:00.557Z,74.60
2022-08-02T14:44:30.439Z,75.50
2022-08-02T14:46:59.821Z,76.10
2022-08-02T14:49:26.933Z,76.10
2022-08-02T14:51:57.350Z,76.10
2022-08-02T14:54:30.652Z,77.00
2022-08-02T14:57:03.390Z,77.00
2022-08-02T14:59:30.644Z,76.70
2022-08-02T15:01:58.173Z,78.00
2022-08-02T15:04:25.162Z,76.10
2022-08-02T15:06:52.147Z,76.90
2022-08-02T15:09:19.585Z,76.40
2022-08-02T15:11:48.835Z,75.60
2022-08-02T15:14:20.407Z,75.30
2022-08-02T15:16:58.413Z,75.90
2022-08-02T15:19:46.177Z,75.80
2022-08-02T15:22:18.916Z,76.90
2022-08-02T15:24:47.669Z,75.10
2022-08-02T15:27:15.266Z,74.60
2022-08-02T15:29:46.307Z,76.20
2022-08-02T15:32:14.688Z,76.70
2022-08-02T15:34:41.635Z,75.90
2022-08-02T15:37:08.348Z,76.00
2022-08-02T15:39:35.144Z,76.60
2022-08-02T15:42:07.129Z,76.50
2022-08-02T15:44:33.884Z,76.30
2022-08-02T15:47:00.975Z,76.60
2022-08-02T15:49:30.076Z,76.10
2022-08-02T15:51:59.305Z,76.70
2022-08-02T15:54:28.267Z,78.20
2022-08-02T15:56:57.291Z,77.70
2022-08-02T15:59:24.028Z,78.90
2022-08-02T16:01:50.888Z,77.10
2022-08-02T16:04:17.630Z,76.90
2022-08-02T16:09:14.639Z,76.80
2022-08-02T16:11:41.434Z,77.50
2022-08-02T16:14:08.213Z,78.00
2022-08-02T16:16:36.616Z,78.30
2022-08-02T16:19:46.269Z,78.30
2022-08-02T16:21:52.965Z,78.80
2022-08-02T16:24:20.476Z,79.50
2022-08-02T16:26:47.647Z,79.60
2022-08-02T16:29:19.147Z,79.60
2022-08-02T16:31:47.476Z,79.80
2022-08-02T16:34:14.830Z,78.40
2022-08-02T16:36:41.615Z,80.00
2022-08-02T16:39:08.362Z,80.20
2022-08-02T16:41:45.401Z,78.80
2022-08-02T16:44:18.365Z,78.40
2022-08-02T16:46:56.069Z,79.20
2022-08-02T16:50:05.423Z,79.10
2022-08-02T16:52:12.049Z,79.80
2022-08-02T16:54:41.176Z,80.10
2022-08-02T16:57:08.197Z,80.10
2022-08-02T16:59:41.892Z,80.20
2022-08-02T17:02:18.001Z,79.80
2022-08-02T17:04:49.308Z,80.40
2022-08-02T17:08:07.163Z,78.80
2022-08-02T17:10:09.095Z,78.70
2022-08-02T17:12:37.245Z,78.90
2022-08-02T17:16:01.089Z,78.80
2022-08-02T17:17:51.831Z,79.20
2022-08-02T17:20:19.173Z,79.60
2022-08-02T17:22:45.998Z,78.90
2022-08-02T17:25:17.285Z,80.10
2022-08-02T17:27:44.820Z,79.60
2022-08-02T17:30:13.190Z,79.70
2022-08-02T17:32:45.576Z,80.10
2022-08-02T17:35:12.770Z,79.20
2022-08-02T17:37:42.898Z,79.80
2022-08-02T17:40:23.926Z,79.60
2022-08-02T17:42:50.613Z,79.50
2022-08-02T17:45:25.791Z,78.80
2022-08-02T17:48:04.393Z,79.80
2022-08-02T17:50:33.537Z,79.90
2022-08-02T17:53:00.953Z,80.10
2022-08-02T17:55:33.171Z,80.70
2022-08-02T17:57:59.968Z,80.50
2022-08-02T18:00:38.124Z,80.10
2022-08-02T18:03:10.035Z,81.40
2022-08-02T18:05:39.660Z,81.80
2022-08-02T18:10:48.198Z,99.90
2022-08-02T18:13:14.986Z,96.20
2022-08-02T18:15:45.726Z,81.70
2022-08-02T18:18:19.209Z,81.80
2022-08-02T18:20:56.328Z,82.80
2022-08-02T18:23:25.437Z,82.50
2022-08-02T18:25:56.232Z,82.70
2022-08-02T18:28:26.753Z,82.90
2022-08-02T18:30:59.299Z,82.70
2022-08-02T18:33:58.937Z,83.70
2022-08-02T18:36:24.715Z,83.20
2022-08-02T18:38:52.403Z,84.80
2022-08-02T18:41:22.337Z,84.80
2022-08-02T18:43:56.445Z,84.80
2022-08-02T18:46:30.025Z,84.60
2022-08-02T18:49:06.944Z,84.80
2022-08-02T18:51:42.103Z,86.10
2022-08-02T18:54:08.966Z,86.40
2022-08-02T18:56:38.974Z,86.00
2022-08-02T19:01:39.551Z,87.80
2022-08-02T19:04:15.633Z,89.00
2022-08-02T19:06:54.039Z,90.10
2022-08-02T19:09:23.906Z,90.70
2022-08-02T19:11:50.878Z,94.30
2022-08-02T19:32:41.617Z,91.90
2022-08-02T19:35:19.488Z,92.70
2022-08-02T19:37:59.150Z,93.00
2022-08-02T19:40:46.580Z,93.80
2022-08-02T19:44:20.806Z,99.90
2022-08-02T19:46:00.475Z,99.20
2022-08-02T19:48:29.929Z,96.20
2022-08-02T19:51:01.166Z,99.90
2022-08-02T19:53:47.726Z,99.90
2022-08-02T19:56:25.397Z,99.90
2022-08-02T19:58:54.521Z,99.90
2022-08-02T20:01:28.458Z,99.90
2022-08-02T20:04:07.796Z,99.90
2022-08-02T20:06:45.408Z,99.90
2022-08-02T20:09:13.979Z,99.90
2022-08-02T20:11:46.756Z,99.90
2022-08-02T20:14:27.008Z,99.90
2022-08-02T20:16:59.900Z,99.90
2022-08-02T20:22:00.011Z,94.80
2022-08-02T20:24:28.435Z,94.90
2022-08-02T20:26:55.637Z,99.90
2022-08-02T20:29:44.957Z,99.90
2022-08-02T20:32:21.405Z,97.20
2022-08-02T20:34:49.832Z,99.90
2022-08-02T20:38:01.053Z,99.90
2022-08-02T20:40:05.412Z,99.90
2022-08-02T20:45:01.423Z,99.90
2022-08-02T20:50:34.053Z,99.90
2022-08-02T20:53:01.273Z,99.90
2022-08-02T20:55:31.164Z,99.90
2022-08-02T20:58:02.852Z,99.90
2022-08-02T21:00:30.245Z,99.90
2022-08-02T21:54:39.793Z,99.90
2022-08-02T21:57:07.768Z,99.90
2022-08-02T21:59:45.185Z,99.90
2022-08-02T22:02:16.478Z,99.90
2022-08-02T22:09:46.303Z,99.90
2022-08-02T22:20:18.355Z,99.90
2022-08-02T22:22:50.170Z,99.90
2022-08-02T22:25:26.827Z,99.90
2022-08-02T22:28:37.185Z,99.90
2022-08-02T22:30:53.907Z,99.90
2022-08-02T22:33:46.671Z,99.90
2022-08-02T22:36:28.297Z,99.90
2022-08-02T22:38:57.997Z,99.90
2022-08-02T22:41:24.809Z,99.90
2022-08-02T22:43:53.967Z,99.90
2022-08-02T22:46:26.513Z,99.90
2022-08-02T22:48:54.989Z,99.90
2022-08-02T22:51:22.158Z,99.90
2022-08-02T22:53:48.939Z,99.90
2022-08-02T22:56:16.202Z,99.90
2022-08-02T23:01:30.183Z,99.90
2022-08-02T23:03:57.023Z,99.90
2022-08-02T23:06:25.942Z,99.90
2022-08-02T23:08:52.689Z,99.90
2022-08-02T23:11:19.521Z,99.90
2022-08-02T23:13:50.691Z,99.90
2022-08-02T23:16:39.426Z,99.90
2022-08-02T23:19:24.937Z,99.90
2022-08-02T23:22:02.820Z,99.90
2022-08-02T23:24:32.890Z,99.90
2022-08-02T23:27:02.122Z,99.90
2022-08-02T23:29:29.127Z,99.90
2022-08-02T23:31:56.015Z,99.90
2022-08-02T23:34:22.802Z,99.90
2022-08-02T23:36:49.497Z,99.90
2022-08-02T23:39:16.190Z,99.90
2022-08-02T23:41:42.959Z,99.90
2022-08-02T23:44:13.982Z,99.90
2022-08-02T23:46:47.435Z,99.90
2022-08-02T23:49:15.895Z,99.90
2022-08-02T23:51:43.208Z,99.90
2022-08-02T23:54:10.977Z,99.90
2022-08-02T23:56:40.784Z,99.90
2022-08-02T23:59:08.298Z,99.90
